TimeAKDT,TemperatureF,Dew PointF,Humidity,Sea Level PressureIn,VisibilityMPH,Wind Direction,Wind SpeedMPH,Gust SpeedMPH,PrecipitationIn,Events,Conditions,WindDirDegrees,DateUTC
12:53 AM,48.0,43.0,83,30.19,10.0,Calm,Calm,-,N/A,,Overcast,0,2012-10-09 08:53:00
1:53 AM,46.9,43.0,86,30.19,10.0,Calm,Calm,-,N/A,,Overcast,0,2012-10-09 09:53:00
2:53 AM,46.9,43.0,86,30.18,10.0,Calm,Calm,-,N/A,,Overcast,0,2012-10-09 10:53:00
3:53 AM,46.9,44.1,90,30.17,9.0,Calm,Calm,-,N/A,,Overcast,0,2012-10-09 11:53:00
4:02 AM,46.4,44.6,93,30.17,9.0,Calm,Calm,-,N/A,,Overcast,0,2012-10-09 12:02:00
4:53 AM,46.9,42.1,83,30.17,10.0,East,3.5,-,N/A,,Overcast,100,2012-10-09 12:53:00
5:53 AM,46.9,41.0,80,30.16,10.0,Calm,Calm,-,N/A,,Overcast,0,2012-10-09 13:53:00
6:07 AM,46.4,42.8,87,30.16,8.0,ENE,3.5,-,N/A,,Overcast,70,2012-10-09 14:07:00
6:53 AM,46.0,42.1,86,30.16,4.0,NE,5.8,-,N/A,,Overcast,50,2012-10-09 14:53:00
7:53 AM,45.0,41.0,86,30.16,10.0,NE,4.6,-,N/A,,Overcast,50,2012-10-09 15:53:00
8:53 AM,45.0,41.0,86,30.16,10.0,NE,3.5,-,N/A,,Overcast,40,2012-10-09 16:53:00
9:53 AM,45.0,39.9,82,30.16,10.0,NE,3.5,-,N/A,,Overcast,50,2012-10-09 17:53:00
10:53 AM,46.0,41.0,83,30.16,10.0,East,6.9,-,N/A,,Overcast,80,2012-10-09 18:53:00
11:20 AM,44.6,39.2,81,30.15,10.0,East,6.9,-,N/A,,Overcast,90,2012-10-09 19:20:00
11:28 AM,44.6,39.2,81,30.16,10.0,ENE,8.1,-,N/A,,Overcast,60,2012-10-09 19:28:00
11:53 AM,46.0,41.0,83,30.15,10.0,East,6.9,-,N/A,,Overcast,80,2012-10-09 19:53:00
12:00 PM,46.4,39.2,76,30.15,10.0,ENE,5.8,-,N/A,,Overcast,70,2012-10-09 20:00:00
12:21 PM,46.4,41.0,81,30.16,10.0,ENE,5.8,-,N/A,,Overcast,70,2012-10-09 20:21:00
12:53 PM,46.0,41.0,83,30.15,10.0,Calm,Calm,-,N/A,,Overcast,0,2012-10-09 20:53:00
1:00 PM,46.4,41.0,81,30.15,10.0,East,5.8,-,N/A,,Overcast,100,2012-10-09 21:00:00
1:02 PM,46.4,41.0,81,30.15,10.0,East,5.8,-,N/A,,Overcast,100,2012-10-09 21:02:00
1:53 PM,46.9,41.0,80,30.15,10.0,East,3.5,-,N/A,,Overcast,90,2012-10-09 21:53:00
2:53 PM,46.9,41.0,80,30.14,10.0,SE,4.6,-,N/A,,Overcast,140,2012-10-09 22:53:00
3:53 PM,48.0,41.0,77,30.14,10.0,Calm,Calm,-,N/A,,Overcast,0,2012-10-09 23:53:00
4:53 PM,48.0,42.1,80,30.12,10.0,Calm,Calm,-,N/A,,Overcast,0,2012-10-10 00:53:00
5:41 PM,48.2,42.8,82,30.11,10.0,SSW,3.5,-,N/A,,Scattered Clouds,210,2012-10-10 01:41:00
5:53 PM,48.0,42.1,80,30.11,10.0,Calm,Calm,-,N/A,,Clear,0,2012-10-10 01:53:00
6:25 PM,46.4,42.8,87,30.10,10.0,SW,4.6,-,N/A,,Mostly Cloudy,230,2012-10-10 02:25:00
6:53 PM,46.0,41.0,83,30.10,10.0,Calm,Calm,-,N/A,,Partly Cloudy,0,2012-10-10 02:53:00
7:53 PM,45.0,42.1,90,30.10,10.0,Calm,Calm,-,N/A,,Overcast,0,2012-10-10 03:53:00
8:53 PM,48.0,43.0,83,30.10,10.0,ENE,8.1,-,N/A,,Overcast,70,2012-10-10 04:53:00
9:42 PM,46.4,42.8,87,30.10,10.0,ENE,5.8,-,N/A,,Overcast,60,2012-10-10 05:42:00
9:53 PM,46.9,43.0,86,30.10,10.0,East,8.1,-,N/A,,Overcast,80,2012-10-10 05:53:00
10:53 PM,46.0,43.0,89,30.10,10.0,NE,8.1,-,N/A,,Overcast,50,2012-10-10 06:53:00
11:03 PM,46.4,42.8,87,30.09,10.0,NE,6.9,-,N/A,,Overcast,40,2012-10-10 07:03:00
11:21 PM,46.4,42.8,87,30.09,10.0,NE,4.6,-,N/A,,Overcast,40,2012-10-10 07:21:00
11:53 PM,46.0,42.1,86,30.09,10.0,Calm,Calm,-,N/A,,Overcast,0,2012-10-10 07:53:00